Time;durP1;ratioP1;P1;durP2;ratioP2;P2;SDS_P1;SDS_P2;PMS_P1;PMS_P2;Temp;Humidity;BMP_temperature;BMP_pressure;BME280_temperature;BME280_humidity;BME280_pressure;Samples;Min_cycle;Max_cycle;Signal;HPM_P1;HPM_P2
2024/04/05 00:02:13;;;;;;;30.33;6.55;;;11.60;99.90;;;;;;4985552;28;20460;-67
2024/04/05 00:04:39;;;;;;;27.70;5.80;;;11.60;99.90;;;;;;4983562;28;20042;-67
2024/04/05 00:07:04;;;;;;;27.73;5.28;;;11.60;99.90;;;;;;4984691;28;20523;-67
2024/04/05 00:09:30;;;;;;;26.13;6.18;;;11.60;99.90;;;;;;4984720;28;20046;-67
2024/04/05 00:11:56;;;;;;;23.40;6.00;;;11.60;99.90;;;;;;4980347;28;20078;-67
2024/04/05 00:14:22;;;;;;;23.10;5.32;;;11.60;99.90;;;;;;4985324;28;20100;-67
2024/04/05 00:16:49;;;;;;;24.60;4.65;;;11.60;99.90;;;;;;4983370;28;20050;-67
2024/04/05 00:19:14;;;;;;;28.02;5.25;;;11.70;99.90;;;;;;4986383;28;20344;-67
2024/04/05 00:21:40;;;;;;;24.70;4.63;;;11.60;99.90;;;;;;4983660;28;20424;-67
2024/04/05 00:24:06;;;;;;;26.25;5.45;;;11.50;99.90;;;;;;4984600;28;20041;-67
2024/04/05 00:26:32;;;;;;;22.02;4.30;;;11.50;99.90;;;;;;4981071;28;20070;-67
2024/04/05 00:28:57;;;;;;;20.80;4.65;;;11.70;99.90;;;;;;4983369;28;20038;-67
2024/04/05 00:31:23;;;;;;;24.05;5.43;;;11.50;99.90;;;;;;4982747;28;20035;-67
2024/04/05 00:33:48;;;;;;;22.52;4.32;;;11.50;99.90;;;;;;4980369;28;20460;-67
2024/04/05 00:36:15;;;;;;;27.45;4.88;;;11.40;99.90;;;;;;4984729;28;20054;-67
2024/04/05 00:38:41;;;;;;;20.58;5.57;;;11.40;99.90;;;;;;5014826;28;20039;-67
2024/04/05 00:41:06;;;;;;;24.55;5.03;;;11.40;99.90;;;;;;4983527;28;20046;-67
2024/04/05 00:43:32;;;;;;;30.60;5.50;;;11.40;99.90;;;;;;4985400;28;20040;-67
2024/04/05 00:45:58;;;;;;;19.52;4.63;;;11.40;99.90;;;;;;4985778;28;20443;-67
2024/04/05 00:48:24;;;;;;;22.15;5.18;;;11.40;99.90;;;;;;4980202;28;21488;-67
2024/04/05 00:50:51;;;;;;;20.83;5.53;;;11.70;99.90;;;;;;4982721;28;20043;-67
2024/04/05 00:53:22;;;;;;;29.38;6.25;;;11.40;99.90;;;;;;4983559;28;20485;-67
2024/04/05 00:55:48;;;;;;;24.05;5.40;;;11.30;99.90;;;;;;4983983;28;20049;-67
2024/04/05 00:58:15;;;;;;;22.42;5.30;;;11.20;99.90;;;;;;4982590;28;20039;-67
2024/04/05 01:00:41;;;;;;;17.90;4.63;;;11.30;99.90;;;;;;4983912;28;20065;-67
2024/04/05 01:03:06;;;;;;;27.85;4.30;;;11.20;99.90;;;;;;5018303;28;20457;-67
2024/04/05 01:05:33;;;;;;;20.85;4.50;;;11.20;99.90;;;;;;4984341;28;20054;-67
2024/04/05 01:07:59;;;;;;;27.88;4.70;;;11.10;99.90;;;;;;4987998;28;20062;-67
2024/04/05 01:10:25;;;;;;;20.27;4.57;;;11.10;99.90;;;;;;4987221;28;20050;-67
2024/04/05 01:13:08;;;;;;;26.02;4.78;;;11.60;99.90;;;;;;4988523;28;20104;-67
2024/04/05 01:15:34;;;;;;;25.80;4.88;;;11.00;99.90;;;;;;4989528;28;20637;-67
2024/04/05 01:18:02;;;;;;;27.60;5.30;;;11.00;99.90;;;;;;4986563;28;20489;-67
2024/04/05 01:20:30;;;;;;;22.88;4.82;;;11.00;99.90;;;;;;4985822;28;20038;-67
2024/04/05 01:23:00;;;;;;;23.15;5.63;;;10.90;99.90;;;;;;4988156;28;20093;-67
2024/04/05 01:25:26;;;;;;;27.50;5.63;;;10.90;99.90;;;;;;4986942;28;20047;-67
2024/04/05 01:27:51;;;;;;;21.83;3.70;;;11.00;99.90;;;;;;4985314;28;20515;-67
2024/04/05 01:30:17;;;;;;;29.90;5.95;;;10.90;99.90;;;;;;4987244;28;20396;-67
2024/04/05 01:33:01;;;;;;;21.73;5.20;;;10.90;99.90;;;;;;4988874;28;20041;-67
2024/04/05 01:35:27;;;;;;;30.83;6.60;;;10.90;99.90;;;;;;4987358;28;20057;-67
2024/04/05 01:37:54;;;;;;;23.75;4.85;;;11.00;99.90;;;;;;4986269;28;20051;-67
2024/04/05 01:40:19;;;;;;;26.05;5.47;;;11.60;99.90;;;;;;4988390;28;20039;-67
2024/04/05 01:42:45;;;;;;;23.70;5.72;;;11.00;99.90;;;;;;4992782;28;20839;-67
2024/04/05 01:45:11;;;;;;;25.48;4.35;;;11.00;99.90;;;;;;4990940;28;20042;-67
2024/04/05 01:47:36;;;;;;;26.60;5.95;;;11.00;99.90;;;;;;4989873;28;20042;-67
2024/04/05 01:50:03;;;;;;;22.85;4.38;;;11.00;99.90;;;;;;4986274;28;20050;-67
2024/04/05 01:52:29;;;;;;;22.08;4.47;;;11.00;99.90;;;;;;4991571;28;20049;-67
2024/04/05 01:54:58;;;;;;;28.25;6.68;;;11.00;99.90;;;;;;4989122;28;20412;-67
2024/04/05 01:57:24;;;;;;;22.13;4.43;;;11.00;99.90;;;;;;4986123;28;20295;-67
2024/04/05 01:59:52;;;;;;;28.48;4.47;;;11.00;99.90;;;;;;5014983;28;20041;-68
2024/04/05 02:02:19;;;;;;;25.02;4.15;;;11.00;99.90;;;;;;4988189;28;20060;-67
2024/04/05 02:04:45;;;;;;;22.63;4.70;;;11.00;99.90;;;;;;4983036;28;20407;-67
2024/04/05 02:07:10;;;;;;;20.90;5.07;;;11.10;99.90;;;;;;4988792;28;20146;-67
2024/04/05 02:09:36;;;;;;;23.23;4.60;;;11.00;99.90;;;;;;4993225;28;20128;-67
2024/04/05 02:12:03;;;;;;;25.35;5.28;;;11.00;99.90;;;;;;4989193;28;20041;-67
2024/04/05 02:14:29;;;;;;;25.75;5.72;;;11.00;99.90;;;;;;4986453;28;20046;-67
2024/04/05 02:16:55;;;;;;;30.75;7.10;;;11.00;99.90;;;;;;4988789;28;20509;-67
2024/04/05 02:19:21;;;;;;;24.77;5.00;;;11.00;99.90;;;;;;4987305;28;20682;-67
2024/04/05 02:21:47;;;;;;;25.58;4.50;;;11.00;99.90;;;;;;4970959;28;20065;-67
2024/04/05 02:24:13;;;;;;;31.40;5.00;;;10.90;99.90;;;;;;4987322;28;20480;-67
2024/04/05 02:26:39;;;;;;;25.98;5.55;;;11.00;99.90;;;;;;4984506;28;20126;-67
2024/04/05 02:29:04;;;;;;;25.70;5.68;;;11.10;99.90;;;;;;4983388;28;20189;-67
2024/04/05 02:31:30;;;;;;;29.85;5.65;;;11.00;99.90;;;;;;4982673;28;20054;-67
2024/04/05 02:33:55;;;;;;;30.15;6.60;;;11.00;99.90;;;;;;4986169;28;20523;-67
2024/04/05 02:36:21;;;;;;;29.27;6.32;;;11.10;99.90;;;;;;5017281;28;20126;-67
2024/04/05 02:38:47;;;;;;;26.20;4.93;;;11.10;99.90;;;;;;4984405;28;20038;-67
2024/04/05 02:41:13;;;;;;;30.95;6.53;;;11.10;99.90;;;;;;4987143;28;20039;-67
2024/04/05 02:43:39;;;;;;;24.80;5.72;;;11.10;99.90;;;;;;4984409;28;20042;-67
2024/04/05 02:46:05;;;;;;;26.85;6.55;;;11.20;99.90;;;;;;5019744;28;20117;-67
2024/04/05 02:48:31;;;;;;;28.95;4.88;;;11.10;99.90;;;;;;4982534;28;20138;-67
2024/04/05 02:50:56;;;;;;;27.15;5.30;;;11.10;99.90;;;;;;5016571;28;20565;-67
2024/04/05 02:53:24;;;;;;;29.80;5.40;;;11.10;99.90;;;;;;4982689;28;20035;-67
2024/04/05 02:55:49;;;;;;;30.45;5.90;;;11.10;99.90;;;;;;4987198;28;20113;-67
2024/04/05 02:58:15;;;;;;;30.67;5.78;;;11.20;99.90;;;;;;4985387;28;20133;-67
2024/04/05 03:00:41;;;;;;;31.75;6.10;;;11.20;99.90;;;;;;4985364;28;20038;-67
2024/04/05 03:03:06;;;;;;;27.60;6.43;;;11.20;99.90;;;;;;4984606;28;20489;-67
2024/04/05 03:05:32;;;;;;;28.30;5.18;;;11.20;99.90;;;;;;4982464;28;20047;-67
2024/04/05 03:07:57;;;;;;;28.00;6.03;;;11.10;99.90;;;;;;5015652;28;20405;-67
2024/04/05 03:10:29;;;;;;;25.80;5.07;;;11.10;99.90;;;;;;4985947;28;20043;-67
2024/04/05 03:12:56;;;;;;;25.10;5.43;;;11.30;99.90;;;;;;4983937;28;20401;-67
2024/04/05 03:15:22;;;;;;;25.38;5.53;;;11.20;99.90;;;;;;4985196;28;20051;-67
2024/04/05 03:17:47;;;;;;;29.23;6.30;;;11.20;99.90;;;;;;4985171;28;20057;-67
2024/04/05 03:20:13;;;;;;;25.33;4.93;;;11.10;99.90;;;;;;4986385;28;20038;-68
2024/04/05 03:22:39;;;;;;;32.97;6.70;;;11.20;99.90;;;;;;4985320;28;20385;-67
2024/04/05 03:25:06;;;;;;;24.23;5.43;;;11.10;99.90;;;;;;4983695;28;20054;-67
2024/04/05 03:27:32;;;;;;;24.63;4.82;;;11.20;99.90;;;;;;4984926;28;20163;-67
2024/04/05 03:29:58;;;;;;;23.25;4.78;;;11.20;99.90;;;;;;4982980;28;20051;-67
2024/04/05 03:32:24;;;;;;;23.90;4.85;;;11.30;99.90;;;;;;5014125;28;20100;-67
2024/04/05 03:34:50;;;;;;;20.02;4.20;;;11.40;99.90;;;;;;4985138;28;20436;-67
2024/04/05 03:37:15;;;;;;;22.17;4.47;;;11.30;99.90;;;;;;4986984;28;20049;-67
2024/04/05 03:39:41;;;;;;;30.23;5.05;;;11.30;99.90;;;;;;4982205;28;20038;-67
2024/04/05 03:42:06;;;;;;;22.92;4.53;;;11.30;99.90;;;;;;4986497;28;20507;-67
2024/04/05 03:44:32;;;;;;;26.30;5.05;;;11.40;99.90;;;;;;4982674;28;20026;-67
2024/04/05 03:46:58;;;;;;;22.92;4.47;;;11.30;99.90;;;;;;4984191;28;20055;-67
2024/04/05 03:49:25;;;;;;;22.17;4.80;;;11.40;99.90;;;;;;4980962;28;20473;-67
2024/04/05 03:51:50;;;;;;;21.02;3.65;;;11.30;99.90;;;;;;4985208;28;20270;-67
2024/04/05 03:54:16;;;;;;;26.50;5.13;;;11.40;99.90;;;;;;4984571;28;20503;-67
2024/04/05 03:56:42;;;;;;;24.58;5.18;;;11.40;99.90;;;;;;4982094;28;20038;-67
2024/04/05 03:59:08;;;;;;;19.73;4.43;;;11.30;99.90;;;;;;4980822;28;20374;-67
2024/04/05 04:01:33;;;;;;;14.90;3.58;;;11.30;99.90;;;;;;4982072;28;20039;-67
2024/04/05 04:03:59;;;;;;;22.40;4.25;;;11.30;99.90;;;;;;4984150;28;20076;-67
2024/04/05 04:06:25;;;;;;;23.88;4.55;;;11.30;99.90;;;;;;4984082;28;20182;-67
2024/04/05 04:08:50;;;;;;;23.73;4.35;;;11.40;99.90;;;;;;4984678;28;20034;-67
2024/04/05 04:11:16;;;;;;;22.98;4.00;;;11.30;99.90;;;;;;4982205;28;20542;-67
2024/04/05 04:13:42;;;;;;;23.13;4.28;;;11.30;99.90;;;;;;5014213;28;20128;-67
2024/04/05 04:16:08;;;;;;;20.35;4.00;;;11.30;99.90;;;;;;4982746;28;20053;-67
2024/04/05 04:18:34;;;;;;;23.23;5.00;;;11.30;99.90;;;;;;4984830;28;20038;-67
2024/04/05 04:20:59;;;;;;;15.45;3.63;;;11.30;99.90;;;;;;4984050;28;20058;-67
2024/04/05 04:23:25;;;;;;;18.42;3.85;;;11.40;99.90;;;;;;4983965;28;20045;-67
2024/04/05 04:25:51;;;;;;;22.92;5.05;;;11.40;99.90;;;;;;4980237;28;20432;-67
2024/04/05 04:28:17;;;;;;;22.83;4.90;;;11.30;99.90;;;;;;4982507;28;20047;-67
2024/04/05 04:30:45;;;;;;;21.05;4.55;;;11.30;99.90;;;;;;4982708;28;20057;-67
2024/04/05 04:33:13;;;;;;;20.92;5.63;;;11.40;99.90;;;;;;4984456;28;20062;-67
2024/04/05 04:35:39;;;;;;;21.38;4.25;;;11.40;99.90;;;;;;5014998;28;20046;-67
2024/04/05 04:38:04;;;;;;;21.92;4.18;;;11.40;99.90;;;;;;4988103;28;20078;-67
2024/04/05 04:40:30;;;;;;;27.63;4.47;;;11.30;99.90;;;;;;4985900;28;20081;-67
2024/04/05 04:42:56;;;;;;;19.73;4.32;;;11.30;99.90;;;;;;5019303;28;20195;-67
2024/04/05 04:45:21;;;;;;;18.88;3.60;;;11.30;99.90;;;;;;4980516;28;20078;-67
2024/04/05 04:47:47;;;;;;;25.90;5.35;;;11.20;99.90;;;;;;4980777;28;20043;-67
2024/04/05 04:50:13;;;;;;;23.40;4.90;;;11.30;99.90;;;;;;5014607;28;20477;-67
2024/04/05 04:52:38;;;;;;;22.38;4.55;;;11.20;99.90;;;;;;4985027;28;20045;-67
2024/04/05 04:55:10;;;;;;;17.70;4.03;;;11.20;99.90;;;;;;4985490;28;20042;-67
2024/04/05 04:57:36;;;;;;;20.58;4.70;;;11.10;99.90;;;;;;4985988;28;20042;-67
2024/04/05 05:00:02;;;;;;;21.88;4.20;;;11.20;99.90;;;;;;4982520;28;20043;-67
2024/04/05 05:02:28;;;;;;;21.10;4.65;;;11.20;99.90;;;;;;4986870;28;20752;-67
2024/04/05 05:04:53;;;;;;;22.65;5.45;;;11.30;99.90;;;;;;5015295;28;20041;-67
2024/04/05 05:07:19;;;;;;;21.30;4.57;;;11.30;99.90;;;;;;4988123;28;20046;-68
2024/04/05 05:09:45;;;;;;;24.88;4.43;;;11.20;99.90;;;;;;4970222;28;20137;-68
2024/04/05 05:12:10;;;;;;;26.08;4.80;;;11.20;99.90;;;;;;4984732;28;20070;-68
2024/04/05 05:14:36;;;;;;;25.75;4.82;;;11.30;99.90;;;;;;4985623;28;20485;-67
2024/04/05 05:17:02;;;;;;;23.10;4.38;;;11.20;99.90;;;;;;4987123;28;20042;-67
2024/04/05 05:19:27;;;;;;;26.20;4.53;;;11.20;99.90;;;;;;4985505;28;20037;-67
2024/04/05 05:21:53;;;;;;;29.17;5.43;;;11.20;99.90;;;;;;4984715;28;20034;-67
2024/04/05 05:24:18;;;;;;;23.67;4.25;;;11.20;99.90;;;;;;4983159;28;20100;-67
2024/04/05 05:26:44;;;;;;;20.13;4.25;;;11.20;99.90;;;;;;4972372;28;20050;-67
2024/04/05 05:29:10;;;;;;;29.15;5.47;;;11.20;99.90;;;;;;4983508;28;20389;-68
2024/04/05 05:31:35;;;;;;;25.50;4.10;;;11.30;99.90;;;;;;4989190;28;20097;-67
2024/04/05 05:34:01;;;;;;;19.85;3.95;;;11.20;99.90;;;;;;4987393;28;20066;-68
2024/04/05 05:36:26;;;;;;;22.08;4.95;;;11.40;99.90;;;;;;5019769;28;20056;-67
2024/04/05 05:38:52;;;;;;;26.60;4.68;;;11.20;99.90;;;;;;4987563;28;20374;-68
2024/04/05 05:41:18;;;;;;;26.67;4.40;;;11.20;99.90;;;;;;4989335;28;20045;-67
2024/04/05 05:43:44;;;;;;;30.30;5.65;;;11.20;99.90;;;;;;4986610;28;20118;-67
2024/04/05 05:46:09;;;;;;;25.42;4.47;;;11.20;99.90;;;;;;4984423;28;20043;-68
2024/04/05 05:48:35;;;;;;;29.92;5.55;;;11.30;99.90;;;;;;4985974;28;20038;-67
2024/04/05 05:51:01;;;;;;;19.13;4.95;;;11.20;99.90;;;;;;4984603;28;20474;-67
2024/04/05 05:53:27;;;;;;;23.83;4.95;;;11.30;99.90;;;;;;4985193;28;20038;-67
2024/04/05 05:55:53;;;;;;;23.20;4.20;;;11.30;99.90;;;;;;4986039;28;20046;-67
2024/04/05 05:58:19;;;;;;;24.70;4.90;;;11.40;99.90;;;;;;5017141;28;20049;-67
2024/04/05 06:00:44;;;;;;;23.15;3.83;;;11.30;99.90;;;;;;4983943;28;20062;-68
2024/04/05 06:03:11;;;;;;;28.00;4.97;;;11.40;99.90;;;;;;4980895;28;20389;-68
2024/04/05 06:05:37;;;;;;;22.38;5.22;;;11.40;99.90;;;;;;4978435;28;20053;-68
2024/04/05 06:08:03;;;;;;;18.17;4.40;;;11.60;99.90;;;;;;4979796;28;20521;-67
2024/04/05 06:10:28;;;;;;;20.73;4.63;;;11.50;99.90;;;;;;4980048;28;20038;-67
2024/04/05 06:12:54;;;;;;;23.73;5.25;;;11.60;99.90;;;;;;4983593;28;20050;-67
2024/04/05 06:15:19;;;;;;;20.67;4.40;;;11.60;99.90;;;;;;4983836;28;20524;-67
2024/04/05 06:17:46;;;;;;;20.90;4.95;;;11.70;99.90;;;;;;5014950;28;20067;-67
2024/04/05 06:20:12;;;;;;;22.35;4.97;;;11.80;99.90;;;;;;4982847;28;20063;-67
2024/04/05 06:22:38;;;;;;;25.83;4.57;;;11.90;99.90;;;;;;4983561;28;20034;-67
2024/04/05 06:25:04;;;;;;;19.00;4.18;;;12.00;99.90;;;;;;4981995;28;20058;-67
2024/04/05 06:27:30;;;;;;;18.48;4.75;;;11.90;99.90;;;;;;5015384;28;20074;-67
2024/04/05 06:29:57;;;;;;;21.98;4.53;;;12.00;99.90;;;;;;4979663;28;20046;-67
2024/04/05 06:32:23;;;;;;;21.00;4.85;;;12.10;99.90;;;;;;4986371;28;20065;-67
2024/04/05 06:34:50;;;;;;;22.40;4.13;;;12.20;99.90;;;;;;4984064;28;20055;-67
2024/04/05 06:37:16;;;;;;;19.60;3.47;;;12.20;99.90;;;;;;5017472;28;20396;-67
2024/04/05 06:39:41;;;;;;;20.00;4.10;;;12.20;99.90;;;;;;4984407;28;20090;-67
2024/04/05 06:42:08;;;;;;;22.60;5.00;;;12.10;99.90;;;;;;4988554;28;20448;-67
2024/04/05 06:44:39;;;;;;;18.98;4.25;;;12.10;99.90;;;;;;4982631;28;20360;-67
2024/04/05 06:47:09;;;;;;;21.15;4.40;;;12.10;99.90;;;;;;4984314;28;20054;-67
2024/04/05 06:49:37;;;;;;;23.08;4.97;;;12.10;99.90;;;;;;4984348;28;20105;-67
2024/04/05 06:52:06;;;;;;;22.48;4.95;;;12.10;99.90;;;;;;4983490;28;20053;-67
2024/04/05 06:54:33;;;;;;;18.42;4.57;;;12.10;99.90;;;;;;4982034;28;20049;-67
2024/04/05 06:57:00;;;;;;;22.08;4.53;;;12.10;99.90;;;;;;4982294;28;20046;-67
2024/04/05 06:59:28;;;;;;;18.60;4.63;;;12.20;99.90;;;;;;4983391;28;20034;-67
2024/04/05 07:01:54;;;;;;;16.00;4.78;;;12.10;99.90;;;;;;4980147;28;20051;-67
2024/04/05 07:04:23;;;;;;;22.52;5.60;;;12.20;99.90;;;;;;4988008;28;20089;-67
2024/04/05 07:06:50;;;;;;;18.38;3.78;;;12.40;99.90;;;;;;4984318;28;20043;-67
2024/04/05 07:09:20;;;;;;;18.17;4.35;;;12.30;99.90;;;;;;4983752;28;20042;-67
2024/04/05 07:11:46;;;;;;;17.83;4.13;;;12.30;99.90;;;;;;4982465;28;20039;-67
2024/04/05 07:14:12;;;;;;;24.35;4.75;;;12.30;99.90;;;;;;4981276;28;20038;-67
2024/04/05 07:16:37;;;;;;;19.70;4.82;;;12.40;99.90;;;;;;4987260;28;20748;-67
2024/04/05 07:19:03;;;;;;;21.98;5.13;;;12.50;99.90;;;;;;4982854;28;20039;-67
2024/04/05 07:21:29;;;;;;;19.65;4.30;;;12.50;99.90;;;;;;5012081;28;20654;-67
2024/04/05 07:23:55;;;;;;;15.30;4.15;;;12.70;99.90;;;;;;4981059;28;20557;-67
2024/04/05 07:26:21;;;;;;;18.20;5.18;;;12.60;99.90;;;;;;4981747;28;20053;-67
2024/04/05 07:28:47;;;;;;;17.30;5.18;;;12.70;99.90;;;;;;4984500;28;20038;-67
2024/04/05 07:31:14;;;;;;;20.83;5.00;;;12.70;99.90;;;;;;4983715;28;20416;-67
2024/04/05 07:33:40;;;;;;;19.73;4.30;;;12.70;99.90;;;;;;4983572;28;20042;-67
2024/04/05 07:36:06;;;;;;;19.67;4.25;;;13.00;99.90;;;;;;4983803;28;20046;-67
2024/04/05 07:38:32;;;;;;;19.13;3.90;;;12.90;99.90;;;;;;4981220;28;20401;-67
2024/04/05 07:41:06;;;;;;;17.73;4.65;;;13.00;99.90;;;;;;4982304;28;20035;-67
2024/04/05 07:43:32;;;;;;;17.33;4.23;;;13.00;99.90;;;;;;4982867;28;20054;-67
2024/04/05 07:45:58;;;;;;;15.35;4.20;;;13.20;99.90;;;;;;4981705;28;20489;-67
2024/04/05 07:48:24;;;;;;;14.50;4.38;;;13.40;99.90;;;;;;4979368;28;20050;-67
2024/04/05 07:50:49;;;;;;;15.80;3.67;;;13.20;99.90;;;;;;4984052;28;20500;-67
2024/04/05 07:53:15;;;;;;;16.77;3.72;;;13.40;99.90;;;;;;4981252;28;20074;-67
2024/04/05 07:55:40;;;;;;;15.00;3.63;;;13.40;99.90;;;;;;4980687;28;20055;-67
2024/04/05 07:58:06;;;;;;;13.23;3.63;;;13.50;99.90;;;;;;4980208;28;20425;-68
2024/04/05 08:00:32;;;;;;;15.60;4.57;;;13.60;99.90;;;;;;4981712;28;20042;-68
2024/04/05 08:02:58;;;;;;;15.63;3.47;;;13.60;99.90;;;;;;5009497;28;20489;-67
2024/04/05 08:05:23;;;;;;;12.05;4.13;;;13.60;99.90;;;;;;4980585;28;20050;-67
2024/04/05 08:07:49;;;;;;;18.67;4.13;;;13.70;99.90;;;;;;4978929;28;20138;-67
2024/04/05 08:10:15;;;;;;;13.73;3.35;;;13.80;99.90;;;;;;4980836;28;20397;-67
2024/04/05 08:12:42;;;;;;;15.00;3.80;;;14.10;99.90;;;;;;4978904;28;20042;-67
2024/04/05 08:15:11;;;;;;;11.25;2.95;;;13.90;99.90;;;;;;4980371;28;20511;-67
2024/04/05 08:17:37;;;;;;;18.38;4.00;;;13.90;99.90;;;;;;4982822;28;20141;-68
2024/04/05 08:20:03;;;;;;;12.65;4.82;;;14.20;99.90;;;;;;4979890;28;20043;-67
2024/04/05 08:22:29;;;;;;;17.80;3.55;;;14.00;99.90;;;;;;4979592;28;20050;-67
2024/04/05 08:24:58;;;;;;;14.45;3.53;;;14.00;99.90;;;;;;4982623;28;20038;-67
2024/04/05 08:27:23;;;;;;;15.27;3.25;;;14.00;99.90;;;;;;4979346;28;20105;-67
2024/04/05 08:29:49;;;;;;;12.02;3.20;;;14.00;99.90;;;;;;4984304;28;20077;-67
2024/04/05 08:32:15;;;;;;;10.65;3.47;;;14.10;99.90;;;;;;4980586;28;20046;-67
2024/04/05 08:34:42;;;;;;;11.27;3.67;;;14.10;99.90;;;;;;4980439;28;20043;-67
2024/04/05 08:37:08;;;;;;;11.38;3.17;;;14.10;99.90;;;;;;4978731;28;20500;-67
2024/04/05 08:39:34;;;;;;;11.43;3.00;;;14.20;99.90;;;;;;4980252;28;20061;-67
2024/04/05 08:42:19;;;;;;;14.20;3.40;;;14.30;99.90;;;;;;4971612;28;20113;-67
2024/04/05 08:44:47;;;;;;;9.75;2.83;;;14.20;99.90;;;;;;4981126;28;20042;-67
2024/04/05 08:47:13;;;;;;;8.75;2.72;;;14.30;99.90;;;;;;4984637;28;20518;-67
2024/04/05 08:49:41;;;;;;;9.85;2.22;;;14.30;99.90;;;;;;4984710;28;20042;-67
2024/04/05 08:52:06;;;;;;;10.63;2.72;;;14.30;99.90;;;;;;4979146;28;20062;-67
2024/04/05 08:54:33;;;;;;;10.05;2.55;;;14.50;99.90;;;;;;4982821;28;20052;-67
2024/04/05 08:57:00;;;;;;;10.55;2.55;;;14.30;99.90;;;;;;5011677;28;20073;-67
2024/04/05 08:59:28;;;;;;;11.20;2.65;;;14.40;99.90;;;;;;4980258;28;20581;-67
2024/04/05 09:01:55;;;;;;;11.68;2.92;;;14.10;99.90;;;;;;4980591;28;20047;-67
2024/04/05 09:04:20;;;;;;;8.38;2.40;;;14.20;99.90;;;;;;4983429;28;20034;-67
2024/04/05 09:06:46;;;;;;;16.80;4.55;;;14.00;99.90;;;;;;4983676;28;20097;-68
2024/04/05 09:09:12;;;;;;;12.00;4.15;;;14.00;99.90;;;;;;4979504;28;20066;-68
2024/04/05 09:11:37;;;;;;;12.07;3.50;;;13.90;99.90;;;;;;4982817;28;20038;-68
2024/04/05 09:14:04;;;;;;;10.30;3.42;;;13.80;99.90;;;;;;5015385;28;20086;-68
2024/04/05 09:16:34;;;;;;;10.52;3.10;;;13.80;99.90;;;;;;4984232;28;20096;-68
2024/04/05 09:19:12;;;;;;;10.73;3.10;;;13.80;99.90;;;;;;4995799;28;20555;-68
2024/04/05 09:21:44;;;;;;;12.77;3.03;;;13.70;99.90;;;;;;4975630;28;20504;-68
2024/04/05 09:24:11;;;;;;;11.98;3.28;;;13.70;99.90;;;;;;4981494;28;20125;-68
2024/04/05 09:26:36;;;;;;;11.45;3.63;;;13.70;99.90;;;;;;4982531;28;20038;-67
2024/04/05 09:29:06;;;;;;;9.15;3.13;;;13.60;99.90;;;;;;4985828;28;20587;-68
2024/04/05 09:31:32;;;;;;;12.68;3.60;;;13.60;99.90;;;;;;4983937;28;20121;-68
2024/04/05 09:34:14;;;;;;;9.73;2.95;;;13.60;99.90;;;;;;4987032;28;20133;-68
2024/04/05 09:36:41;;;;;;;8.95;3.03;;;13.60;99.90;;;;;;4985957;28;20077;-67
2024/04/05 09:39:13;;;;;;;11.45;2.65;;;13.50;99.90;;;;;;4980669;28;20042;-67
2024/04/05 09:41:39;;;;;;;12.38;3.00;;;13.50;99.90;;;;;;4991337;28;20038;-68
2024/04/05 09:44:07;;;;;;;11.85;3.30;;;13.50;99.90;;;;;;4982054;28;20027;-68
2024/04/05 09:46:34;;;;;;;9.55;2.78;;;13.50;99.90;;;;;;4982567;28;20100;-68
2024/04/05 09:49:01;;;;;;;12.38;3.53;;;13.50;99.90;;;;;;4978960;28;20038;-68
2024/04/05 09:51:44;;;;;;;11.30;2.78;;;13.50;99.90;;;;;;4984027;28;20377;-68
2024/04/05 09:54:15;;;;;;;11.82;2.92;;;13.40;99.90;;;;;;4985410;28;20038;-68
2024/04/05 09:56:45;;;;;;;11.30;3.70;;;13.40;99.90;;;;;;5013760;28;20504;-68
2024/04/05 09:59:15;;;;;;;12.65;3.53;;;13.40;99.90;;;;;;4990352;28;20099;-68
2024/04/05 10:01:41;;;;;;;10.73;3.22;;;13.30;99.90;;;;;;4982081;28;20520;-68
2024/04/05 10:04:11;;;;;;;10.13;3.17;;;13.30;99.90;;;;;;4982395;28;20042;-68
2024/04/05 10:06:42;;;;;;;9.25;3.50;;;13.30;99.90;;;;;;4983975;28;20049;-68
2024/04/05 10:09:22;;;;;;;13.63;4.32;;;13.30;99.90;;;;;;4982173;28;20059;-68
2024/04/05 10:11:50;;;;;;;12.55;3.50;;;13.30;99.90;;;;;;4980707;28;20042;-68
2024/04/05 10:14:31;;;;;;;13.10;3.38;;;13.30;99.90;;;;;;4982075;28;20063;-68
2024/04/05 10:17:07;;;;;;;10.63;3.05;;;13.30;99.90;;;;;;4979614;28;20073;-68
2024/04/05 10:19:36;;;;;;;15.27;3.58;;;13.30;99.90;;;;;;4984884;28;20371;-67
2024/04/05 10:22:16;;;;;;;10.73;3.47;;;13.30;99.90;;;;;;4977363;28;20057;-67
2024/04/05 10:24:42;;;;;;;11.98;3.05;;;13.30;99.90;;;;;;4985254;28;20381;-68
2024/04/05 10:27:11;;;;;;;8.77;3.17;;;13.40;99.90;;;;;;4982112;28;20042;-68
2024/04/05 10:29:37;;;;;;;10.77;2.80;;;13.60;99.90;;;;;;4983481;28;20094;-68
2024/04/05 10:32:07;;;;;;;9.43;3.22;;;13.50;99.90;;;;;;4984372;28;20061;-68
2024/04/05 10:34:33;;;;;;;10.02;3.10;;;13.40;99.90;;;;;;4977686;28;20050;-68
2024/04/05 10:37:03;;;;;;;11.70;3.33;;;13.30;99.90;;;;;;4978601;28;20042;-68
2024/04/05 10:39:28;;;;;;;14.23;3.90;;;13.40;99.90;;;;;;4977540;28;20665;-68
2024/04/05 10:41:54;;;;;;;11.18;4.30;;;13.40;99.90;;;;;;5015017;28;20043;-68
2024/04/05 10:44:20;;;;;;;10.88;2.92;;;13.40;99.90;;;;;;4983057;28;20030;-68
2024/04/05 10:46:48;;;;;;;12.38;2.95;;;13.40;99.90;;;;;;4983964;28;20493;-68
2024/04/05 10:49:19;;;;;;;14.98;3.05;;;13.50;99.90;;;;;;4982982;28;20045;-68
2024/04/05 10:51:48;;;;;;;10.27;3.55;;;13.60;99.90;;;;;;4989705;28;20133;-68
2024/04/05 10:54:15;;;;;;;10.88;2.78;;;13.60;99.90;;;;;;5015307;28;20360;-68
2024/04/05 10:56:42;;;;;;;9.40;2.95;;;13.70;99.90;;;;;;4963616;28;20526;-68
2024/04/05 10:59:12;;;;;;;9.75;2.58;;;13.90;99.90;;;;;;4978565;28;20129;-67
2024/04/05 11:01:38;;;;;;;8.23;2.80;;;13.90;99.90;;;;;;4985111;28;20368;-67
2024/04/05 11:04:06;;;;;;;10.68;3.00;;;13.90;99.90;;;;;;5016087;28;20034;-67
2024/04/05 11:06:32;;;;;;;7.68;2.40;;;14.20;99.90;;;;;;5015374;28;20046;-67
2024/04/05 11:08:58;;;;;;;10.35;2.45;;;14.00;99.90;;;;;;4981609;28;20106;-67
2024/04/05 11:11:26;;;;;;;10.27;2.45;;;14.00;99.90;;;;;;4985926;28;20031;-67
2024/04/05 11:14:05;;;;;;;6.97;2.13;;;14.20;99.90;;;;;;5014768;28;20039;-67
2024/04/05 11:16:32;;;;;;;9.52;2.15;;;14.10;99.90;;;;;;5014725;28;20053;-67
2024/04/05 11:18:58;;;;;;;9.27;2.55;;;14.10;99.90;;;;;;4981751;28;20047;-68
2024/04/05 11:21:23;;;;;;;7.22;2.45;;;14.10;99.90;;;;;;5015631;28;20035;-68
2024/04/05 11:23:53;;;;;;;7.85;2.50;;;14.10;99.90;;;;;;4982175;28;20456;-68
2024/04/05 11:26:32;;;;;;;5.72;1.92;;;14.10;99.90;;;;;;4982087;28;20050;-68
2024/04/05 11:29:02;;;;;;;8.20;1.75;;;14.10;99.90;;;;;;4985051;28;20042;-67
2024/04/05 11:31:29;;;;;;;12.85;2.88;;;14.20;99.90;;;;;;4977020;28;20484;-68
2024/04/05 11:33:56;;;;;;;9.13;2.42;;;14.10;99.90;;;;;;5013848;28;20051;-68
2024/04/05 11:36:22;;;;;;;8.55;1.63;;;14.60;99.90;;;;;;4981848;28;20075;-68
2024/04/05 11:38:48;;;;;;;5.35;1.60;;;14.20;99.90;;;;;;4980880;28;20132;-68
2024/04/05 11:41:14;;;;;;;8.23;2.70;;;14.30;99.90;;;;;;4979861;28;20464;-68
2024/04/05 11:43:40;;;;;;;7.28;1.70;;;14.30;99.90;;;;;;4983611;28;20134;-68
2024/04/05 11:46:08;;;;;;;6.22;1.50;;;14.30;99.90;;;;;;4975434;28;20125;-67
2024/04/05 11:48:33;;;;;;;5.25;1.67;;;14.30;99.90;;;;;;4985030;28;20042;-68
2024/04/05 11:50:59;;;;;;;6.45;1.38;;;14.40;99.90;;;;;;4980514;28;20038;-68
2024/04/05 11:53:24;;;;;;;6.03;2.22;;;14.30;99.90;;;;;;5014065;28;20667;-68
2024/04/05 11:55:50;;;;;;;6.45;1.75;;;14.40;99.90;;;;;;4980013;28;20129;-67
2024/04/05 11:58:17;;;;;;;5.50;1.98;;;14.40;99.90;;;;;;4979627;28;20053;-68
2024/04/05 12:00:48;;;;;;;6.53;2.08;;;14.40;99.90;;;;;;5012487;28;20121;-67
2024/04/05 12:03:14;;;;;;;6.78;1.63;;;14.40;99.90;;;;;;4982375;28;20046;-67
2024/04/05 12:05:42;;;;;;;6.55;1.50;;;14.50;99.90;;;;;;4978439;28;20046;-67
2024/04/05 12:08:09;;;;;;;8.80;2.17;;;14.40;99.90;;;;;;4979871;28;20054;-67
2024/04/05 12:10:35;;;;;;;6.40;1.83;;;14.40;99.90;;;;;;4966975;28;20046;-68
2024/04/05 12:13:01;;;;;;;6.05;1.67;;;14.30;99.90;;;;;;4980137;28;20042;-68
2024/04/05 12:15:27;;;;;;;4.38;1.90;;;14.40;99.90;;;;;;4978410;28;20489;-68
2024/04/05 12:17:52;;;;;;;6.05;1.85;;;14.20;99.90;;;;;;4981616;28;20070;-68
2024/04/05 12:20:18;;;;;;;9.55;2.90;;;14.10;99.90;;;;;;4977842;28;20077;-68
2024/04/05 12:22:45;;;;;;;7.20;1.98;;;14.20;99.90;;;;;;4980611;28;20043;-68
2024/04/05 12:25:10;;;;;;;7.22;2.13;;;14.30;99.90;;;;;;4983320;28;20061;-68
2024/04/05 12:27:36;;;;;;;7.10;1.70;;;14.20;99.90;;;;;;4982799;28;20077;-68
2024/04/05 12:30:04;;;;;;;5.88;1.98;;;14.30;99.90;;;;;;4987307;28;20041;-68
2024/04/05 12:32:29;;;;;;;7.10;2.10;;;14.10;99.90;;;;;;4981209;28;20055;-68
2024/04/05 12:34:56;;;;;;;6.25;1.60;;;14.00;99.90;;;;;;4980944;28;20073;-68
2024/04/05 12:37:22;;;;;;;6.63;1.60;;;14.30;99.90;;;;;;4980292;28;20126;-68